createdAt,value
2022-11-27T00:00:19.258Z,13.52
2022-11-27T00:05:19.945Z,12.37
2022-11-27T00:10:20.758Z,12.07
2022-11-27T00:15:21.891Z,12.82
2022-11-27T00:20:26.072Z,10.80
2022-11-27T00:25:29.714Z,10.70
2022-11-27T00:30:30.474Z,10.65
2022-11-27T00:35:31.189Z,10.93
2022-11-27T00:40:31.960Z,10.82
2022-11-27T00:45:32.741Z,11.02
2022-11-27T00:50:33.508Z,10.75
2022-11-27T00:55:34.450Z,11.68
2022-11-27T01:00:35.178Z,10.35
2022-11-27T01:05:36.638Z,10.43
2022-11-27T01:10:38.890Z,12.15
2022-11-27T01:15:39.740Z,11.83
2022-11-27T01:20:40.489Z,12.57
2022-11-27T01:25:41.689Z,12.82
2022-11-27T01:30:42.396Z,13.60
2022-11-27T01:35:51.799Z,14.52
2022-11-27T01:40:57.977Z,13.50
2022-11-27T01:45:58.985Z,13.10
2022-11-27T01:50:59.784Z,13.25
2022-11-27T01:56:01.235Z,13.85
2022-11-27T02:01:03.127Z,13.57
2022-11-27T02:06:04.077Z,13.13
2022-11-27T02:11:18.320Z,14.38
2022-11-27T02:16:43.500Z,12.60
2022-11-27T02:21:57.716Z,11.12
2022-11-27T02:30:10.004Z,12.32
2022-11-27T02:35:29.453Z,13.05
2022-11-27T02:41:08.602Z,12.63
2022-11-27T02:46:12.213Z,12.88
2022-11-27T02:51:16.670Z,13.50
2022-11-27T02:56:21.584Z,13.98
2022-11-27T03:01:23.886Z,14.02
2022-11-27T03:06:31.280Z,12.77
2022-11-27T03:11:32.243Z,14.60
2022-11-27T03:17:00.811Z,14.45
2022-11-27T03:22:03.660Z,14.95
2022-11-27T03:27:04.950Z,16.52
2022-11-27T03:32:06.671Z,16.02
2022-11-27T03:37:07.680Z,15.65
2022-11-27T03:42:25.292Z,15.98
2022-11-27T03:48:21.621Z,15.57
2022-11-27T03:53:55.240Z,15.68
2022-11-27T04:04:02.699Z,16.50
2022-11-27T04:09:04.555Z,17.50
2022-11-27T04:14:05.400Z,19.00
2022-11-27T04:19:07.411Z,17.00
2022-11-27T04:24:08.133Z,18.52
2022-11-27T04:29:08.956Z,16.08
2022-11-27T04:34:10.114Z,15.98
2022-11-27T04:39:12.569Z,16.98
2022-11-27T04:44:13.375Z,16.80
2022-11-27T04:49:14.352Z,16.83
2022-11-27T04:54:15.206Z,18.40
2022-11-27T04:59:16.022Z,20.23
2022-11-27T05:04:16.978Z,17.65
2022-11-27T05:09:17.946Z,20.17
2022-11-27T05:14:19.943Z,21.80
2022-11-27T05:19:23.075Z,22.20
2022-11-27T05:24:27.001Z,23.50
2022-11-27T05:29:28.848Z,20.60
2022-11-27T05:34:29.774Z,24.73
2022-11-27T05:39:30.520Z,27.45
2022-11-27T05:44:31.276Z,28.02
2022-11-27T05:49:32.046Z,28.95
2022-11-27T05:54:32.795Z,31.83
2022-11-27T05:59:33.558Z,31.33
2022-11-27T06:04:34.441Z,30.05
2022-11-27T06:09:37.180Z,32.00
2022-11-27T06:14:38.230Z,32.15
2022-11-27T06:19:39.138Z,33.83
2022-11-27T06:24:40.282Z,31.98
2022-11-27T06:29:41.257Z,32.05
2022-11-27T06:34:42.437Z,31.17
2022-11-27T06:39:43.577Z,40.90
2022-11-27T06:44:46.030Z,35.78
2022-11-27T06:49:46.740Z,34.83
2022-11-27T06:54:47.543Z,40.47
2022-11-27T06:59:48.308Z,42.30
2022-11-27T07:04:49.176Z,46.30
2022-11-27T07:09:49.874Z,44.17
2022-11-27T07:14:50.632Z,45.03
2022-11-27T07:19:51.334Z,33.65
2022-11-27T07:24:52.081Z,41.67
2022-11-27T07:29:52.786Z,47.17
2022-11-27T07:34:53.915Z,40.78
2022-11-27T07:40:02.480Z,36.42
2022-11-27T07:45:05.014Z,38.58
2022-11-27T07:50:09.866Z,34.60
2022-11-27T07:55:13.583Z,30.73
2022-11-27T08:00:15.357Z,33.05
2022-11-27T08:05:16.459Z,30.02
2022-11-27T08:10:17.494Z,31.45
2022-11-27T08:15:18.730Z,27.42
2022-11-27T08:20:20.044Z,25.52
2022-11-27T08:25:20.884Z,25.58
2022-11-27T08:30:22.918Z,30.48
2022-11-27T08:35:23.765Z,28.77
2022-11-27T08:40:24.954Z,27.50
2022-11-27T08:45:25.758Z,26.48
2022-11-27T08:50:26.808Z,25.17
2022-11-27T08:55:27.552Z,26.95
2022-11-27T09:00:28.535Z,27.62
2022-11-27T09:05:30.323Z,28.27
2022-11-27T09:10:31.594Z,24.75
2022-11-27T09:15:32.523Z,23.30
2022-11-27T09:20:33.252Z,23.30
2022-11-27T09:25:34.041Z,26.17
2022-11-27T09:30:34.748Z,26.12
2022-11-27T09:35:38.827Z,26.10
2022-11-27T09:41:04.730Z,27.48
2022-11-27T09:46:13.965Z,28.15
2022-11-27T09:51:25.184Z,26.12
2022-11-27T09:56:25.994Z,27.67
2022-11-27T10:01:36.594Z,29.23
2022-11-27T10:07:25.499Z,31.05
2022-11-27T10:13:02.036Z,25.33
2022-11-27T10:18:12.490Z,20.92
2022-11-27T10:23:39.034Z,18.83
2022-11-27T10:32:46.988Z,19.12
2022-11-27T10:38:16.045Z,18.45
2022-11-27T10:43:22.664Z,17.55
2022-11-27T10:48:23.821Z,20.05
2022-11-27T10:53:35.698Z,17.58
2022-11-27T10:58:45.540Z,18.10
2022-11-27T11:03:46.694Z,17.58
2022-11-27T11:08:48.769Z,17.35
2022-11-27T11:13:49.683Z,18.25
2022-11-27T11:18:53.353Z,18.02
2022-11-27T11:24:43.224Z,30.33
2022-11-27T11:29:51.686Z,17.98
2022-11-27T11:35:07.733Z,18.52
2022-11-27T11:40:26.213Z,16.77
2022-11-27T11:45:32.654Z,16.60
2022-11-27T11:51:38.353Z,23.67
2022-11-27T11:56:51.453Z,21.48
2022-11-27T12:05:26.499Z,15.20
2022-11-27T12:15:34.908Z,15.20
2022-11-27T12:21:50.685Z,15.45
2022-11-27T12:27:23.742Z,15.70
2022-11-27T12:32:51.891Z,15.70
2022-11-27T12:40:25.765Z,15.93
2022-11-27T12:46:00.863Z,15.65
2022-11-27T12:51:18.545Z,17.05
2022-11-27T12:56:38.470Z,15.50
2022-11-27T13:01:44.988Z,15.88
2022-11-27T13:07:17.497Z,17.42
2022-11-27T13:12:26.371Z,16.90
2022-11-27T13:17:36.367Z,16.30
2022-11-27T13:22:37.343Z,19.77
2022-11-27T13:27:38.764Z,19.15
2022-11-27T13:32:47.165Z,22.42
2022-11-27T13:37:55.703Z,18.48
2022-11-27T13:43:11.725Z,18.55
2022-11-27T13:48:34.702Z,17.37
2022-11-27T13:53:39.722Z,19.23
2022-11-27T13:58:42.852Z,19.73
2022-11-27T14:03:44.807Z,19.87
2022-11-27T14:09:04.116Z,25.77
2022-11-27T14:14:21.735Z,23.62
2022-11-27T14:19:33.533Z,24.60
2022-11-27T14:24:41.250Z,26.27
2022-11-27T14:29:44.828Z,27.40
2022-11-27T14:34:50.154Z,27.53
2022-11-27T14:39:52.309Z,28.85
2022-11-27T14:45:11.733Z,34.60
2022-11-27T14:50:14.382Z,31.00
2022-11-27T14:55:18.430Z,30.60
2022-11-27T15:00:26.837Z,29.92
2022-11-27T15:05:29.245Z,29.02
2022-11-27T15:10:39.810Z,26.08
2022-11-27T15:15:43.649Z,26.08
2022-11-27T15:20:46.731Z,27.52
2022-11-27T15:26:14.987Z,26.00
2022-11-27T15:31:37.967Z,24.27
2022-11-27T15:36:41.947Z,26.30
2022-11-27T15:41:51.279Z,25.95
2022-11-27T15:46:55.930Z,26.55
2022-11-27T15:51:57.883Z,25.52
2022-11-27T15:56:58.744Z,25.08
2022-11-27T16:02:00.349Z,27.08
2022-11-27T16:07:01.212Z,26.27
2022-11-27T16:12:02.895Z,26.45
2022-11-27T16:17:03.730Z,26.75
2022-11-27T16:22:04.592Z,26.35
2022-11-27T16:27:06.578Z,26.27
2022-11-27T16:32:07.770Z,25.55
2022-11-27T16:37:12.073Z,24.10
2022-11-27T16:42:15.186Z,23.05
2022-11-27T16:47:16.402Z,21.30
2022-11-27T16:52:17.359Z,21.15
2022-11-27T16:57:19.307Z,18.65
2022-11-27T17:02:20.693Z,19.95
2022-11-27T17:07:21.522Z,17.83
2022-11-27T17:12:22.580Z,26.65
2022-11-27T17:17:23.368Z,34.67
2022-11-27T17:22:29.530Z,21.98
2022-11-27T17:27:31.770Z,18.60
2022-11-27T17:32:32.531Z,18.33
2022-11-27T17:37:33.346Z,16.90
2022-11-27T17:42:34.088Z,18.73
2022-11-27T17:47:34.867Z,16.55
2022-11-27T17:52:36.784Z,19.30
2022-11-27T17:57:37.775Z,17.80
2022-11-27T18:02:40.130Z,16.15
2022-11-27T18:07:42.909Z,15.95
2022-11-27T18:12:44.147Z,15.00
2022-11-27T18:17:45.046Z,15.75
2022-11-27T18:22:45.865Z,16.30
2022-11-27T18:27:46.863Z,15.82
2022-11-27T18:32:47.616Z,15.65
2022-11-27T18:37:48.480Z,17.65
2022-11-27T18:42:49.239Z,17.75
2022-11-27T18:47:50.379Z,18.80
2022-11-27T18:52:51.200Z,18.02
2022-11-27T18:57:52.462Z,17.62
2022-11-27T19:02:53.780Z,18.83
2022-11-27T19:07:54.684Z,18.33
2022-11-27T19:12:55.519Z,20.12
2022-11-27T19:17:57.480Z,18.95
2022-11-27T19:22:58.321Z,17.95
2022-11-27T19:27:59.158Z,19.20
2022-11-27T19:32:59.911Z,18.62
2022-11-27T19:38:01.588Z,17.92
2022-11-27T19:43:02.465Z,19.33
2022-11-27T19:48:03.345Z,19.35
2022-11-27T19:53:04.578Z,19.45
2022-11-27T19:58:06.278Z,20.95
2022-11-27T20:03:07.045Z,19.77
2022-11-27T20:08:08.090Z,19.77
2022-11-27T20:13:08.847Z,21.85
2022-11-27T20:18:09.695Z,20.40
2022-11-27T20:23:11.651Z,19.10
2022-11-27T20:28:12.369Z,20.12
2022-11-27T20:33:16.848Z,18.70
2022-11-27T20:38:17.605Z,18.73
2022-11-27T20:43:18.636Z,19.80
2022-11-27T20:48:19.533Z,18.48
2022-11-27T20:53:20.417Z,18.12
2022-11-27T20:58:23.000Z,17.70
2022-11-27T21:03:23.814Z,19.00
2022-11-27T21:08:24.877Z,18.17
2022-11-27T21:13:25.930Z,19.15
2022-11-27T21:18:26.876Z,18.20
2022-11-27T21:23:27.713Z,18.33
2022-11-27T21:28:29.760Z,16.80
2022-11-27T21:33:30.511Z,18.35
2022-11-27T21:38:31.284Z,17.90
2022-11-27T21:43:32.021Z,17.75
2022-11-27T21:48:32.846Z,15.70
2022-11-27T21:53:33.700Z,16.75
2022-11-27T21:58:36.550Z,15.43
2022-11-27T22:03:42.311Z,14.80
2022-11-27T22:08:46.281Z,14.27
2022-11-27T22:13:47.263Z,14.02
2022-11-27T22:18:48.858Z,14.60
2022-11-27T22:23:50.260Z,15.75
2022-11-27T22:28:51.913Z,14.40
2022-11-27T22:33:53.915Z,15.60
2022-11-27T22:38:56.210Z,14.23
2022-11-27T22:43:59.482Z,14.65
2022-11-27T22:49:04.054Z,14.73
2022-11-27T22:54:06.505Z,14.57
2022-11-27T23:04:39.016Z,13.98
2022-11-27T23:09:39.978Z,14.13
2022-11-27T23:14:41.299Z,14.85
2022-11-27T23:19:42.301Z,13.57
2022-11-27T23:24:43.672Z,14.68
2022-11-27T23:29:44.794Z,13.15
2022-11-27T23:34:45.733Z,13.52
2022-11-27T23:39:46.467Z,12.77
2022-11-27T23:44:47.219Z,13.60
2022-11-27T23:49:47.961Z,14.25
2022-11-27T23:54:48.921Z,13.55
2022-11-27T23:59:49.683Z,12.40
